Terminal Aerodrome Forecast
Issued by NWS Goodland, KS

Home | Current Version | Previous Version | Text Only | Print | Product List | Glossary On
Versions: 1 2 3 4 5 6 7 8 9 10 11 12 13 14 15 16 17 18
468
FTUS43 KGLD 181136
TAFGLD
TAF
KGLD 181136Z 1812/1912 VRB03KT 1/2SM FG VV002
      TEMPO 1812/1814 1SM BR OVC003
     FM181400 26005KT 2SM BR BKN015
      TEMPO 1815/1816 5SM BR SCT025
     FM181600 33006KT P6SM FEW100
     FM181800 31008KT P6SM SKC
     FM190000 15007KT P6SM SKC=

USA.gov is the U.S. government's official web portal to all federal, state and local government web resources and services.